sensor_id;sensor_type;location;lat;lon;timestamp;temperature;humidity
65752;DHT22;52486;51.098;13.770;2024-02-15T00:00:15;23.60;63.30
65752;DHT22;52486;51.098;13.770;2024-02-15T00:02:42;23.50;63.00
65752;DHT22;52486;51.098;13.770;2024-02-15T00:05:10;23.70;63.30
65752;DHT22;52486;51.098;13.770;2024-02-15T00:07:35;23.60;62.90
65752;DHT22;52486;51.098;13.770;2024-02-15T00:10:01;23.60;63.40
65752;DHT22;52486;51.098;13.770;2024-02-15T00:12:29;23.90;63.10
65752;DHT22;52486;51.098;13.770;2024-02-15T00:14:55;23.60;63.10
65752;DHT22;52486;51.098;13.770;2024-02-15T00:17:24;23.70;63.10
65752;DHT22;52486;51.098;13.770;2024-02-15T00:19:49;23.80;63.10
65752;DHT22;52486;51.098;13.770;2024-02-15T00:22:15;23.80;63.10
65752;DHT22;52486;51.098;13.770;2024-02-15T00:24:40;23.70;62.90
65752;DHT22;52486;51.098;13.770;2024-02-15T00:27:08;24.20;63.20
65752;DHT22;52486;51.098;13.770;2024-02-15T00:29:33;23.90;63.20
65752;DHT22;52486;51.098;13.770;2024-02-15T00:32:00;23.70;62.80
65752;DHT22;52486;51.098;13.770;2024-02-15T00:34:25;23.90;62.90
65752;DHT22;52486;51.098;13.770;2024-02-15T00:36:52;23.60;62.70
65752;DHT22;52486;51.098;13.770;2024-02-15T00:39:17;23.80;62.80
65752;DHT22;52486;51.098;13.770;2024-02-15T00:41:46;23.80;61.10
65752;DHT22;52486;51.098;13.770;2024-02-15T00:44:12;23.80;62.30
65752;DHT22;52486;51.098;13.770;2024-02-15T00:46:37;24.00;62.80
65752;DHT22;52486;51.098;13.770;2024-02-15T00:49:03;23.90;62.90
65752;DHT22;52486;51.098;13.770;2024-02-15T00:51:40;23.90;62.70
65752;DHT22;52486;51.098;13.770;2024-02-15T00:54:05;23.80;62.10
65752;DHT22;52486;51.098;13.770;2024-02-15T00:56:31;23.90;62.90
65752;DHT22;52486;51.098;13.770;2024-02-15T00:59:00;24.10;62.80
65752;DHT22;52486;51.098;13.770;2024-02-15T01:01:26;23.00;60.00
65752;DHT22;52486;51.098;13.770;2024-02-15T01:03:51;24.00;63.00
65752;DHT22;52486;51.098;13.770;2024-02-15T01:06:17;26.50;64.50
65752;DHT22;52486;51.098;13.770;2024-02-15T01:08:42;23.70;63.20
65752;DHT22;52486;51.098;13.770;2024-02-15T01:11:08;24.00;63.00
65752;DHT22;52486;51.098;13.770;2024-02-15T01:13:35;23.90;62.50
65752;DHT22;52486;51.098;13.770;2024-02-15T01:16:00;24.10;62.90
65752;DHT22;52486;51.098;13.770;2024-02-15T01:18:28;23.90;62.60
65752;DHT22;52486;51.098;13.770;2024-02-15T01:20:55;23.90;62.50
65752;DHT22;52486;51.098;13.770;2024-02-15T01:23:20;24.10;62.70
65752;DHT22;52486;51.098;13.770;2024-02-15T01:25:47;24.10;62.60
65752;DHT22;52486;51.098;13.770;2024-02-15T01:28:13;26.60;64.40
65752;DHT22;52486;51.098;13.770;2024-02-15T01:30:39;23.90;62.60
65752;DHT22;52486;51.098;13.770;2024-02-15T01:33:04;24.10;62.80
65752;DHT22;52486;51.098;13.770;2024-02-15T01:35:30;25.40;63.40
65752;DHT22;52486;51.098;13.770;2024-02-15T01:37:55;23.90;62.60
65752;DHT22;52486;51.098;13.770;2024-02-15T01:40:21;24.10;62.80
65752;DHT22;52486;51.098;13.770;2024-02-15T01:42:47;24.20;62.60
65752;DHT22;52486;51.098;13.770;2024-02-15T01:45:15;24.00;62.40
65752;DHT22;52486;51.098;13.770;2024-02-15T01:47:41;24.30;62.60
65752;DHT22;52486;51.098;13.770;2024-02-15T01:50:07;24.00;62.60
65752;DHT22;52486;51.098;13.770;2024-02-15T01:52:33;23.90;61.70
65752;DHT22;52486;51.098;13.770;2024-02-15T01:54:58;23.90;62.50
65752;DHT22;52486;51.098;13.770;2024-02-15T01:57:24;24.10;62.50
65752;DHT22;52486;51.098;13.770;2024-02-15T01:59:50;24.00;62.70
65752;DHT22;52486;51.098;13.770;2024-02-15T02:02:17;24.10;62.50
65752;DHT22;52486;51.098;13.770;2024-02-15T02:04:43;24.20;62.60
65752;DHT22;52486;51.098;13.770;2024-02-15T02:07:10;23.80;62.40
65752;DHT22;52486;51.098;13.770;2024-02-15T02:09:36;24.10;62.50
65752;DHT22;52486;51.098;13.770;2024-02-15T02:12:02;24.00;62.40
65752;DHT22;52486;51.098;13.770;2024-02-15T02:14:29;24.10;62.30
65752;DHT22;52486;51.098;13.770;2024-02-15T02:16:54;24.00;62.30
65752;DHT22;52486;51.098;13.770;2024-02-15T02:19:20;24.30;62.40
65752;DHT22;52486;51.098;13.770;2024-02-15T02:21:46;24.30;62.80
65752;DHT22;52486;51.098;13.770;2024-02-15T02:24:18;24.00;62.30
65752;DHT22;52486;51.098;13.770;2024-02-15T02:26:46;24.20;62.50
65752;DHT22;52486;51.098;13.770;2024-02-15T02:29:14;24.20;62.40
65752;DHT22;52486;51.098;13.770;2024-02-15T02:31:39;23.90;62.20
65752;DHT22;52486;51.098;13.770;2024-02-15T02:34:05;24.10;62.00
65752;DHT22;52486;51.098;13.770;2024-02-15T02:36:33;24.10;62.30
65752;DHT22;52486;51.098;13.770;2024-02-15T02:38:58;24.00;62.50
65752;DHT22;52486;51.098;13.770;2024-02-15T02:41:29;24.10;62.40
65752;DHT22;52486;51.098;13.770;2024-02-15T02:43:55;24.10;60.10
65752;DHT22;52486;51.098;13.770;2024-02-15T02:46:21;24.20;62.40
65752;DHT22;52486;51.098;13.770;2024-02-15T02:48:46;24.10;62.60
65752;DHT22;52486;51.098;13.770;2024-02-15T02:51:12;24.00;62.50
65752;DHT22;52486;51.098;13.770;2024-02-15T02:53:37;23.90;61.60
65752;DHT22;52486;51.098;13.770;2024-02-15T02:56:03;24.00;62.50
65752;DHT22;52486;51.098;13.770;2024-02-15T02:58:29;24.10;61.90
65752;DHT22;52486;51.098;13.770;2024-02-15T03:00:54;24.10;62.40
65752;DHT22;52486;51.098;13.770;2024-02-15T03:03:20;24.20;62.30
65752;DHT22;52486;51.098;13.770;2024-02-15T03:05:48;24.20;62.30
65752;DHT22;52486;51.098;13.770;2024-02-15T03:08:14;23.90;62.20
65752;DHT22;52486;51.098;13.770;2024-02-15T03:10:39;24.60;62.60
65752;DHT22;52486;51.098;13.770;2024-02-15T03:13:06;24.30;62.40
65752;DHT22;52486;51.098;13.770;2024-02-15T03:15:33;24.10;62.20
65752;DHT22;52486;51.098;13.770;2024-02-15T03:17:59;23.80;62.10
65752;DHT22;52486;51.098;13.770;2024-02-15T03:20:25;24.30;62.50
65752;DHT22;52486;51.098;13.770;2024-02-15T03:22:51;24.20;62.50
65752;DHT22;52486;51.098;13.770;2024-02-15T03:25:17;23.90;61.40
65752;DHT22;52486;51.098;13.770;2024-02-15T03:27:43;24.00;62.40
65752;DHT22;52486;51.098;13.770;2024-02-15T03:30:08;23.90;62.20
65752;DHT22;52486;51.098;13.770;2024-02-15T03:32:35;23.90;61.80
65752;DHT22;52486;51.098;13.770;2024-02-15T03:35:01;23.90;61.60
65752;DHT22;52486;51.098;13.770;2024-02-15T03:37:26;24.20;62.50
65752;DHT22;52486;51.098;13.770;2024-02-15T03:39:52;24.00;61.80
65752;DHT22;52486;51.098;13.770;2024-02-15T03:42:17;24.20;62.40
65752;DHT22;52486;51.098;13.770;2024-02-15T03:44:43;24.20;62.40
65752;DHT22;52486;51.098;13.770;2024-02-15T03:47:08;24.30;62.50
65752;DHT22;52486;51.098;13.770;2024-02-15T03:49:34;24.20;62.40
65752;DHT22;52486;51.098;13.770;2024-02-15T03:51:59;24.30;62.50
65752;DHT22;52486;51.098;13.770;2024-02-15T03:54:25;24.40;62.50
65752;DHT22;52486;51.098;13.770;2024-02-15T03:56:53;24.30;61.60
65752;DHT22;52486;51.098;13.770;2024-02-15T03:59:20;24.30;62.20
65752;DHT22;52486;51.098;13.770;2024-02-15T04:01:55;24.10;61.60
65752;DHT22;52486;51.098;13.770;2024-02-15T04:04:20;24.10;59.90
65752;DHT22;52486;51.098;13.770;2024-02-15T04:06:49;24.20;62.20
65752;DHT22;52486;51.098;13.770;2024-02-15T04:09:15;24.20;62.20
65752;DHT22;52486;51.098;13.770;2024-02-15T04:11:43;25.40;62.90
65752;DHT22;52486;51.098;13.770;2024-02-15T04:14:09;24.30;62.20
65752;DHT22;52486;51.098;13.770;2024-02-15T04:16:34;24.50;62.50
65752;DHT22;52486;51.098;13.770;2024-02-15T04:19:01;24.20;62.10
65752;DHT22;52486;51.098;13.770;2024-02-15T04:21:26;24.30;62.40
65752;DHT22;52486;51.098;13.770;2024-02-15T04:23:52;24.10;62.00
65752;DHT22;52486;51.098;13.770;2024-02-15T04:26:19;24.20;62.10
65752;DHT22;52486;51.098;13.770;2024-02-15T04:28:45;24.70;62.50
65752;DHT22;52486;51.098;13.770;2024-02-15T04:31:13;24.40;62.30
65752;DHT22;52486;51.098;13.770;2024-02-15T04:33:39;24.20;62.20
65752;DHT22;52486;51.098;13.770;2024-02-15T04:36:05;24.30;61.80
65752;DHT22;52486;51.098;13.770;2024-02-15T04:38:32;24.30;61.90
65752;DHT22;52486;51.098;13.770;2024-02-15T04:41:02;24.50;62.40
65752;DHT22;52486;51.098;13.770;2024-02-15T04:43:30;24.10;59.70
65752;DHT22;52486;51.098;13.770;2024-02-15T04:45:57;24.20;62.00
65752;DHT22;52486;51.098;13.770;2024-02-15T04:48:23;24.10;62.00
65752;DHT22;52486;51.098;13.770;2024-02-15T04:50:50;22.90;61.30
65752;DHT22;52486;51.098;13.770;2024-02-15T04:53:16;24.20;62.00
65752;DHT22;52486;51.098;13.770;2024-02-15T04:55:42;24.10;62.20
65752;DHT22;52486;51.098;13.770;2024-02-15T04:58:08;24.10;62.40
65752;DHT22;52486;51.098;13.770;2024-02-15T05:00:36;24.10;62.20
65752;DHT22;52486;51.098;13.770;2024-02-15T05:03:01;24.10;62.30
65752;DHT22;52486;51.098;13.770;2024-02-15T05:05:27;24.10;62.00
65752;DHT22;52486;51.098;13.770;2024-02-15T05:07:54;24.10;62.10
65752;DHT22;52486;51.098;13.770;2024-02-15T05:10:20;24.10;62.30
65752;DHT22;52486;51.098;13.770;2024-02-15T05:12:45;24.20;62.50
65752;DHT22;52486;51.098;13.770;2024-02-15T05:15:14;24.10;62.10
65752;DHT22;52486;51.098;13.770;2024-02-15T05:17:42;24.20;62.20
65752;DHT22;52486;51.098;13.770;2024-02-15T05:20:10;24.30;61.60
65752;DHT22;52486;51.098;13.770;2024-02-15T05:22:39;24.40;62.00
65752;DHT22;52486;51.098;13.770;2024-02-15T05:25:06;24.10;62.20
65752;DHT22;52486;51.098;13.770;2024-02-15T05:27:33;24.40;61.90
65752;DHT22;52486;51.098;13.770;2024-02-15T05:29:58;26.10;63.50
65752;DHT22;52486;51.098;13.770;2024-02-15T05:32:24;24.20;62.30
65752;DHT22;52486;51.098;13.770;2024-02-15T05:34:51;24.40;62.10
65752;DHT22;52486;51.098;13.770;2024-02-15T05:37:16;24.40;61.70
65752;DHT22;52486;51.098;13.770;2024-02-15T05:39:42;24.10;61.40
65752;DHT22;52486;51.098;13.770;2024-02-15T05:42:07;24.30;62.30
65752;DHT22;52486;51.098;13.770;2024-02-15T05:44:34;24.00;62.00
65752;DHT22;52486;51.098;13.770;2024-02-15T05:47:00;24.20;62.10
65752;DHT22;52486;51.098;13.770;2024-02-15T05:49:25;24.40;62.50
65752;DHT22;52486;51.098;13.770;2024-02-15T05:51:51;24.30;62.30
65752;DHT22;52486;51.098;13.770;2024-02-15T05:54:18;24.30;62.30
65752;DHT22;52486;51.098;13.770;2024-02-15T05:56:44;24.00;62.20
65752;DHT22;52486;51.098;13.770;2024-02-15T05:59:09;24.80;62.80
65752;DHT22;52486;51.098;13.770;2024-02-15T06:01:36;24.10;62.00
65752;DHT22;52486;51.098;13.770;2024-02-15T06:04:02;24.20;62.30
65752;DHT22;52486;51.098;13.770;2024-02-15T06:06:30;24.30;62.10
65752;DHT22;52486;51.098;13.770;2024-02-15T06:08:55;25.40;63.10
65752;DHT22;52486;51.098;13.770;2024-02-15T06:11:25;24.30;61.60
65752;DHT22;52486;51.098;13.770;2024-02-15T06:13:50;24.30;62.30
65752;DHT22;52486;51.098;13.770;2024-02-15T06:16:15;24.20;62.30
65752;DHT22;52486;51.098;13.770;2024-02-15T06:18:41;24.30;62.30
65752;DHT22;52486;51.098;13.770;2024-02-15T06:21:07;24.50;62.40
65752;DHT22;52486;51.098;13.770;2024-02-15T06:23:33;24.30;62.80
65752;DHT22;52486;51.098;13.770;2024-02-15T06:25:58;24.30;62.10
65752;DHT22;52486;51.098;13.770;2024-02-15T06:28:26;24.20;62.20
65752;DHT22;52486;51.098;13.770;2024-02-15T06:31:10;24.20;60.60
65752;DHT22;52486;51.098;13.770;2024-02-15T06:33:55;24.50;62.40
65752;DHT22;52486;51.098;13.770;2024-02-15T06:36:46;24.30;61.30
65752;DHT22;52486;51.098;13.770;2024-02-15T06:39:31;24.30;62.30
65752;DHT22;52486;51.098;13.770;2024-02-15T06:42:12;24.60;62.40
65752;DHT22;52486;51.098;13.770;2024-02-15T06:44:42;24.30;62.20
65752;DHT22;52486;51.098;13.770;2024-02-15T06:47:07;24.20;62.10
65752;DHT22;52486;51.098;13.770;2024-02-15T06:49:39;24.40;62.30
65752;DHT22;52486;51.098;13.770;2024-02-15T06:52:05;24.20;59.90
65752;DHT22;52486;51.098;13.770;2024-02-15T06:54:32;24.10;61.80
65752;DHT22;52486;51.098;13.770;2024-02-15T06:56:58;24.40;62.40
65752;DHT22;52486;51.098;13.770;2024-02-15T06:59:24;25.00;62.90
65752;DHT22;52486;51.098;13.770;2024-02-15T07:01:49;24.30;62.40
65752;DHT22;52486;51.098;13.770;2024-02-15T07:04:17;24.30;62.10
65752;DHT22;52486;51.098;13.770;2024-02-15T07:06:43;24.30;62.20
65752;DHT22;52486;51.098;13.770;2024-02-15T07:09:13;24.40;61.60
65752;DHT22;52486;51.098;13.770;2024-02-15T07:11:40;24.40;62.30
65752;DHT22;52486;51.098;13.770;2024-02-15T07:14:06;24.40;62.40
65752;DHT22;52486;51.098;13.770;2024-02-15T07:16:33;24.40;62.20
65752;DHT22;52486;51.098;13.770;2024-02-15T07:18:59;24.20;62.00
65752;DHT22;52486;51.098;13.770;2024-02-15T07:21:25;24.30;62.20
65752;DHT22;52486;51.098;13.770;2024-02-15T07:23:53;24.40;62.20
65752;DHT22;52486;51.098;13.770;2024-02-15T07:26:23;24.40;62.30
65752;DHT22;52486;51.098;13.770;2024-02-15T07:28:53;24.30;59.90
65752;DHT22;52486;51.098;13.770;2024-02-15T07:31:22;24.40;62.30
65752;DHT22;52486;51.098;13.770;2024-02-15T07:33:48;24.30;60.00
65752;DHT22;52486;51.098;13.770;2024-02-15T07:36:17;24.20;62.10
65752;DHT22;52486;51.098;13.770;2024-02-15T07:38:43;25.70;63.20
65752;DHT22;52486;51.098;13.770;2024-02-15T07:41:11;24.50;62.20
65752;DHT22;52486;51.098;13.770;2024-02-15T07:43:38;24.40;62.30
65752;DHT22;52486;51.098;13.770;2024-02-15T07:46:04;24.30;62.10
65752;DHT22;52486;51.098;13.770;2024-02-15T07:48:30;24.30;62.30
65752;DHT22;52486;51.098;13.770;2024-02-15T07:50:55;24.40;62.20
65752;DHT22;52486;51.098;13.770;2024-02-15T07:53:23;25.50;62.90
65752;DHT22;52486;51.098;13.770;2024-02-15T07:55:49;24.70;62.40
65752;DHT22;52486;51.098;13.770;2024-02-15T07:58:15;24.30;61.80
65752;DHT22;52486;51.098;13.770;2024-02-15T08:00:44;24.30;62.10
65752;DHT22;52486;51.098;13.770;2024-02-15T08:03:10;24.50;62.30
65752;DHT22;52486;51.098;13.770;2024-02-15T08:05:35;24.30;63.00
65752;DHT22;52486;51.098;13.770;2024-02-15T08:08:02;25.40;63.70
65752;DHT22;52486;51.098;13.770;2024-02-15T08:10:29;24.40;63.50
65752;DHT22;52486;51.098;13.770;2024-02-15T08:12:55;24.20;63.30
65752;DHT22;52486;51.098;13.770;2024-02-15T08:15:23;24.30;63.50
65752;DHT22;52486;51.098;13.770;2024-02-15T08:17:49;24.30;63.50
65752;DHT22;52486;51.098;13.770;2024-02-15T08:20:15;24.60;63.80
65752;DHT22;52486;51.098;13.770;2024-02-15T08:22:46;24.40;63.70
65752;DHT22;52486;51.098;13.770;2024-02-15T08:25:13;25.40;64.10
65752;DHT22;52486;51.098;13.770;2024-02-15T08:27:39;24.70;63.90
65752;DHT22;52486;51.098;13.770;2024-02-15T08:30:12;25.10;63.90
65752;DHT22;52486;51.098;13.770;2024-02-15T08:32:39;24.90;61.50
65752;DHT22;52486;51.098;13.770;2024-02-15T08:35:07;24.60;63.70
65752;DHT22;52486;51.098;13.770;2024-02-15T08:37:36;24.80;63.00
65752;DHT22;52486;51.098;13.770;2024-02-15T08:40:06;24.70;63.50
65752;DHT22;52486;51.098;13.770;2024-02-15T08:42:39;24.60;63.30
65752;DHT22;52486;51.098;13.770;2024-02-15T08:45:05;24.60;63.40
65752;DHT22;52486;51.098;13.770;2024-02-15T08:47:35;24.70;62.50
65752;DHT22;52486;51.098;13.770;2024-02-15T08:50:03;24.90;63.40
65752;DHT22;52486;51.098;13.770;2024-02-15T08:52:28;24.80;63.00
65752;DHT22;52486;51.098;13.770;2024-02-15T08:54:54;24.90;62.70
65752;DHT22;52486;51.098;13.770;2024-02-15T08:57:21;24.90;63.20
65752;DHT22;52486;51.098;13.770;2024-02-15T08:59:47;25.20;63.70
65752;DHT22;52486;51.098;13.770;2024-02-15T09:02:12;24.90;63.30
65752;DHT22;52486;51.098;13.770;2024-02-15T09:04:39;25.10;62.90
65752;DHT22;52486;51.098;13.770;2024-02-15T09:07:06;25.40;63.20
65752;DHT22;52486;51.098;13.770;2024-02-15T09:09:33;25.10;62.90
65752;DHT22;52486;51.098;13.770;2024-02-15T09:12:02;25.00;62.80
65752;DHT22;52486;51.098;13.770;2024-02-15T09:14:33;27.60;64.70
65752;DHT22;52486;51.098;13.770;2024-02-15T09:17:02;25.40;63.20
65752;DHT22;52486;51.098;13.770;2024-02-15T09:19:36;25.30;60.50
65752;DHT22;52486;51.098;13.770;2024-02-15T09:22:02;25.30;60.50
65752;DHT22;52486;51.098;13.770;2024-02-15T09:24:32;25.20;62.80
65752;DHT22;52486;51.098;13.770;2024-02-15T09:27:01;25.40;63.20
65752;DHT22;52486;51.098;13.770;2024-02-15T09:29:27;25.40;63.10
65752;DHT22;52486;51.098;13.770;2024-02-15T09:31:55;25.90;63.50
65752;DHT22;52486;51.098;13.770;2024-02-15T09:34:20;25.40;62.80
65752;DHT22;52486;51.098;13.770;2024-02-15T09:36:46;25.30;62.80
65752;DHT22;52486;51.098;13.770;2024-02-15T09:39:11;25.50;62.90
65752;DHT22;52486;51.098;13.770;2024-02-15T09:41:39;25.30;62.60
65752;DHT22;52486;51.098;13.770;2024-02-15T09:44:05;27.40;64.30
65752;DHT22;52486;51.098;13.770;2024-02-15T09:46:33;25.40;63.10
65752;DHT22;52486;51.098;13.770;2024-02-15T09:49:00;25.10;62.80
65752;DHT22;52486;51.098;13.770;2024-02-15T09:51:29;26.20;63.40
65752;DHT22;52486;51.098;13.770;2024-02-15T09:53:58;26.30;63.50
65752;DHT22;52486;51.098;13.770;2024-02-15T09:56:24;25.20;63.00
65752;DHT22;52486;51.098;13.770;2024-02-15T09:58:51;25.20;63.20
65752;DHT22;52486;51.098;13.770;2024-02-15T10:01:16;25.30;63.60
65752;DHT22;52486;51.098;13.770;2024-02-15T10:03:44;25.20;63.40
65752;DHT22;52486;51.098;13.770;2024-02-15T10:06:09;25.00;63.40
65752;DHT22;52486;51.098;13.770;2024-02-15T10:08:35;25.30;63.60
65752;DHT22;52486;51.098;13.770;2024-02-15T10:11:07;25.30;63.60
65752;DHT22;52486;51.098;13.770;2024-02-15T10:13:33;25.50;61.50
65752;DHT22;52486;51.098;13.770;2024-02-15T10:15:59;25.30;63.20
65752;DHT22;52486;51.098;13.770;2024-02-15T10:18:24;25.40;63.70
65752;DHT22;52486;51.098;13.770;2024-02-15T10:20:57;26.50;64.40
65752;DHT22;52486;51.098;13.770;2024-02-15T10:23:23;25.20;63.30
65752;DHT22;52486;51.098;13.770;2024-02-15T10:25:48;25.40;63.30
65752;DHT22;52486;51.098;13.770;2024-02-15T10:28:14;25.20;63.40
65752;DHT22;52486;51.098;13.770;2024-02-15T10:30:45;27.00;64.40
65752;DHT22;52486;51.098;13.770;2024-02-15T10:33:25;25.50;63.40
65752;DHT22;52486;51.098;13.770;2024-02-15T10:35:54;25.40;61.10
65752;DHT22;52486;51.098;13.770;2024-02-15T10:38:29;25.30;63.50
65752;DHT22;52486;51.098;13.770;2024-02-15T10:41:02;25.20;63.50
65752;DHT22;52486;51.098;13.770;2024-02-15T10:43:30;25.50;63.60
65752;DHT22;52486;51.098;13.770;2024-02-15T10:45:56;25.50;63.60
65752;DHT22;52486;51.098;13.770;2024-02-15T10:48:21;25.50;63.50
65752;DHT22;52486;51.098;13.770;2024-02-15T10:50:47;25.30;63.30
65752;DHT22;52486;51.098;13.770;2024-02-15T10:53:26;25.60;63.50
65752;DHT22;52486;51.098;13.770;2024-02-15T10:58:36;25.50;60.80
65752;DHT22;52486;51.098;13.770;2024-02-15T11:01:06;25.70;63.80
65752;DHT22;52486;51.098;13.770;2024-02-15T11:03:37;25.50;63.40
65752;DHT22;52486;51.098;13.770;2024-02-15T11:06:06;25.60;61.20
65752;DHT22;52486;51.098;13.770;2024-02-15T11:08:32;25.20;63.20
65752;DHT22;52486;51.098;13.770;2024-02-15T11:10:58;25.20;63.20
65752;DHT22;52486;51.098;13.770;2024-02-15T11:13:24;26.40;63.60
65752;DHT22;52486;51.098;13.770;2024-02-15T11:15:50;25.30;63.00
65752;DHT22;52486;51.098;13.770;2024-02-15T11:21:00;25.40;60.40
65752;DHT22;52486;51.098;13.770;2024-02-15T11:23:26;26.50;63.60
65752;DHT22;52486;51.098;13.770;2024-02-15T11:25:52;25.20;62.50
65752;DHT22;52486;51.098;13.770;2024-02-15T11:30:47;25.40;60.30
65752;DHT22;52486;51.098;13.770;2024-02-15T11:33:27;26.50;63.60
65752;DHT22;52486;51.098;13.770;2024-02-15T11:36:09;25.30;60.20
65752;DHT22;52486;51.098;13.770;2024-02-15T11:38:35;25.50;60.40
65752;DHT22;52486;51.098;13.770;2024-02-15T11:46:17;25.60;60.90
65752;DHT22;52486;51.098;13.770;2024-02-15T11:48:46;25.50;60.60
65752;DHT22;52486;51.098;13.770;2024-02-15T11:51:27;25.60;63.00
65752;DHT22;52486;51.098;13.770;2024-02-15T11:53:59;25.90;60.80
65752;DHT22;52486;51.098;13.770;2024-02-15T11:56:25;25.60;60.60
65752;DHT22;52486;51.098;13.770;2024-02-15T11:59:01;25.60;63.10
65752;DHT22;52486;51.098;13.770;2024-02-15T12:01:27;25.70;63.00
65752;DHT22;52486;51.098;13.770;2024-02-15T12:04:12;25.60;61.50
65752;DHT22;52486;51.098;13.770;2024-02-15T12:06:58;25.80;63.30
65752;DHT22;52486;51.098;13.770;2024-02-15T12:09:42;25.70;63.20
65752;DHT22;52486;51.098;13.770;2024-02-15T12:12:26;25.90;61.40
65752;DHT22;52486;51.098;13.770;2024-02-15T12:15:09;25.60;61.00
65752;DHT22;52486;51.098;13.770;2024-02-15T12:17:54;25.90;61.20
65752;DHT22;52486;51.098;13.770;2024-02-15T12:20:39;26.20;61.40
65752;DHT22;52486;51.098;13.770;2024-02-15T12:23:04;25.70;60.70
65752;DHT22;52486;51.098;13.770;2024-02-15T12:25:32;25.70;62.90
65752;DHT22;52486;51.098;13.770;2024-02-15T12:27:58;25.90;63.00
65752;DHT22;52486;51.098;13.770;2024-02-15T12:30:24;25.90;63.30
65752;DHT22;52486;51.098;13.770;2024-02-15T12:32:51;25.90;63.20
65752;DHT22;52486;51.098;13.770;2024-02-15T12:35:17;25.90;63.40
65752;DHT22;52486;51.098;13.770;2024-02-15T12:40:29;25.80;60.80
65752;DHT22;52486;51.098;13.770;2024-02-15T12:42:55;26.00;63.20
65752;DHT22;52486;51.098;13.770;2024-02-15T12:45:21;26.00;63.10
65752;DHT22;52486;51.098;13.770;2024-02-15T12:47:50;26.00;62.80
65752;DHT22;52486;51.098;13.770;2024-02-15T12:50:16;26.10;62.80
65752;DHT22;52486;51.098;13.770;2024-02-15T12:52:42;26.10;63.10
65752;DHT22;52486;51.098;13.770;2024-02-15T12:57:38;26.10;60.10
65752;DHT22;52486;51.098;13.770;2024-02-15T13:00:07;26.00;62.20
65752;DHT22;52486;51.098;13.770;2024-02-15T13:02:37;26.00;61.60
65752;DHT22;52486;51.098;13.770;2024-02-15T13:05:03;25.30;62.20
65752;DHT22;52486;51.098;13.770;2024-02-15T13:07:29;24.30;64.80
65752;DHT22;52486;51.098;13.770;2024-02-15T13:09:54;24.10;65.60
65752;DHT22;52486;51.098;13.770;2024-02-15T13:12:20;26.00;66.50
65752;DHT22;52486;51.098;13.770;2024-02-15T13:14:46;24.20;65.40
65752;DHT22;52486;51.098;13.770;2024-02-15T13:17:11;24.10;66.10
65752;DHT22;52486;51.098;13.770;2024-02-15T13:19:37;24.00;65.20
65752;DHT22;52486;51.098;13.770;2024-02-15T13:22:03;23.90;64.90
65752;DHT22;52486;51.098;13.770;2024-02-15T13:24:28;24.10;65.30
65752;DHT22;52486;51.098;13.770;2024-02-15T13:26:54;24.10;65.70
65752;DHT22;52486;51.098;13.770;2024-02-15T13:29:21;24.30;65.60
65752;DHT22;52486;51.098;13.770;2024-02-15T13:31:48;23.50;66.40
65752;DHT22;52486;51.098;13.770;2024-02-15T13:34:16;24.20;67.60
65752;DHT22;52486;51.098;13.770;2024-02-15T13:36:42;24.00;67.10
65752;DHT22;52486;51.098;13.770;2024-02-15T13:39:07;23.90;66.70
65752;DHT22;52486;51.098;13.770;2024-02-15T13:41:34;23.40;66.80
65752;DHT22;52486;51.098;13.770;2024-02-15T13:44:00;22.60;67.50
65752;DHT22;52486;51.098;13.770;2024-02-15T13:46:25;22.30;69.60
65752;DHT22;52486;51.098;13.770;2024-02-15T13:48:51;24.70;72.70
65752;DHT22;52486;51.098;13.770;2024-02-15T13:51:16;22.00;71.00
65752;DHT22;52486;51.098;13.770;2024-02-15T13:53:42;22.80;71.00
65752;DHT22;52486;51.098;13.770;2024-02-15T13:56:08;22.70;69.50
65752;DHT22;52486;51.098;13.770;2024-02-15T13:58:34;22.70;69.20
65752;DHT22;52486;51.098;13.770;2024-02-15T14:01:00;23.10;69.50
65752;DHT22;52486;51.098;13.770;2024-02-15T14:03:29;22.60;70.00
65752;DHT22;52486;51.098;13.770;2024-02-15T14:05:55;24.50;71.60
65752;DHT22;52486;51.098;13.770;2024-02-15T14:08:20;21.80;70.30
65752;DHT22;52486;51.098;13.770;2024-02-15T14:10:47;21.40;71.70
65752;DHT22;52486;51.098;13.770;2024-02-15T14:13:13;21.10;73.20
65752;DHT22;52486;51.098;13.770;2024-02-15T14:15:39;22.70;74.90
65752;DHT22;52486;51.098;13.770;2024-02-15T14:18:05;23.80;75.30
65752;DHT22;52486;51.098;13.770;2024-02-15T14:20:31;20.60;74.60
65752;DHT22;52486;51.098;13.770;2024-02-15T14:22:57;20.30;75.50
65752;DHT22;52486;51.098;13.770;2024-02-15T14:25:23;20.50;76.30
65752;DHT22;52486;51.098;13.770;2024-02-15T14:27:49;20.10;76.00
65752;DHT22;52486;51.098;13.770;2024-02-15T14:30:15;20.00;76.40
65752;DHT22;52486;51.098;13.770;2024-02-15T14:32:58;21.60;76.00
65752;DHT22;52486;51.098;13.770;2024-02-15T14:35:31;20.00;75.20
65752;DHT22;52486;51.098;13.770;2024-02-15T14:37:57;20.00;77.00
65752;DHT22;52486;51.098;13.770;2024-02-15T14:40:23;20.10;76.20
65752;DHT22;52486;51.098;13.770;2024-02-15T14:42:49;20.70;77.40
65752;DHT22;52486;51.098;13.770;2024-02-15T14:45:14;22.00;78.50
65752;DHT22;52486;51.098;13.770;2024-02-15T14:47:40;19.60;76.80
65752;DHT22;52486;51.098;13.770;2024-02-15T14:50:07;19.70;77.10
65752;DHT22;52486;51.098;13.770;2024-02-15T14:52:36;19.80;76.60
65752;DHT22;52486;51.098;13.770;2024-02-15T14:55:03;19.60;75.20
65752;DHT22;52486;51.098;13.770;2024-02-15T14:57:31;19.60;77.30
65752;DHT22;52486;51.098;13.770;2024-02-15T14:59:56;20.10;76.80
65752;DHT22;52486;51.098;13.770;2024-02-15T15:02:22;21.20;76.60
65752;DHT22;52486;51.098;13.770;2024-02-15T15:04:47;20.60;75.20
65752;DHT22;52486;51.098;13.770;2024-02-15T15:07:33;23.00;75.50
65752;DHT22;52486;51.098;13.770;2024-02-15T15:10:17;21.70;72.00
65752;DHT22;52486;51.098;13.770;2024-02-15T15:13:01;22.00;71.50
65752;DHT22;52486;51.098;13.770;2024-02-15T15:15:28;22.10;72.30
65752;DHT22;52486;51.098;13.770;2024-02-15T15:17:53;22.40;71.80
65752;DHT22;52486;51.098;13.770;2024-02-15T15:20:19;22.40;72.00
65752;DHT22;52486;51.098;13.770;2024-02-15T15:22:45;24.20;72.40
65752;DHT22;52486;51.098;13.770;2024-02-15T15:25:11;22.70;70.50
65752;DHT22;52486;51.098;13.770;2024-02-15T15:27:37;23.60;71.20
65752;DHT22;52486;51.098;13.770;2024-02-15T15:30:06;25.40;71.90
65752;DHT22;52486;51.098;13.770;2024-02-15T15:32:31;23.20;67.70
65752;DHT22;52486;51.098;13.770;2024-02-15T15:34:59;23.20;69.70